Impacts METAR Board
IDs:

KSEA - Seattle-Tacoma Intl, WA, US

Updated at: 1400 UTC 05 Apr 2020
Potential Impact None Slight Moderate High
Time 05/02Z 05/03Z 05/04Z 05/05Z 05/06Z 05/07Z 05/08Z 05/09Z 05/10Z 05/11Z 05/12Z 05/13Z 05/14Z
Temp51 50 48 47 46 46 45 45 45 44 44 44 44
Dewpt31 32 33 35 36 35 36 36 36 37 37 37 37
Altim29.63 29.62 29.63 29.63 29.63 29.63 29.62 29.62 29.62 29.61 29.61 29.61 29.62
VIS10 10 10 10 10 10 10 10 10 10 10 10 10
CIG150 110 110 90 75 70 70 50 60 49 50 49 50
CoverBKNOVCBKNOVCOVCOVCOVCOVCOVCOVCOVCOVCOVC
FltCatVFRVFRVFRVFRVFRVFRVFRVFRVFRVFRVFRVFRVFR
WX--------------------------
WDir101010103401020202010101020
WSpd9 9 12 9 7 8 9 8 10 11 12 10 11
WGst-- -- -- -- -- -- -- -- -- -- -- -- --
Raw hourly METARs
KSEA 050153Z 01009KT 10SM FEW045 FEW070 BKN150 11/M01 A2963 RMK AO2 SLP040 T01061006
KSEA 050253Z 01009KT 10SM FEW045 FEW070 OVC110 10/00 A2962 RMK AO2 SLP039 T01000000 56008
KSEA 050353Z 01012KT 10SM BKN110 09/01 A2963 RMK AO2 SLP041 T00890006
KSEA 050453Z 01009KT 10SM OVC090 08/02 A2963 RMK AO2 SLP042 T00830017
KSEA 050553Z 34007KT 10SM OVC075 08/02 A2963 RMK AO2 SLP042 T00780022 10122 20078 51003
KSEA 050653Z 01008KT 10SM OVC070 08/02 A2963 RMK AO2 SLP042 T00780017
KSEA 050753Z 02009KT 10SM OVC070 07/02 A2962 RMK AO2 SLP038 T00720022 401330017
KSEA 050853Z 02008KT 10SM BKN050 OVC070 07/02 A2962 RMK AO2 SLP038 T00720022 58002
KSEA 050953Z 02010KT 10SM OVC060 07/02 A2962 RMK AO2 SLP036 T00720022
KSEA 051053Z 01011KT 10SM OVC049 07/03 A2961 RMK AO2 SLP034 T00670028
KSEA 051153Z 01012KT 10SM OVC050 07/03 A2961 RMK AO2 SLP033 T00670028 10078 20067 56005
KSEA 051253Z 01010KT 10SM BKN049 OVC060 07/03 A2961 RMK AO2 SLP034 T00670028
KSEA 051353Z 02011KT 10SM BKN050 OVC060 07/03 A2962 RMK AO2 SLP036 T00670028



Page loaded:  14:22 UTC  |   07:22 AM Pacific  |   08:22 AM Mountain  |   09:22 AM Central  |   10:22 AM Eastern

 

ADVISORIES

FORECASTS

FORECASTS

OBSERVATIONS

USER TOOLS

ABOUT US